Bismarck, IL (61814)

7:48 AM CST on February 22, 2017 (GMT -0600)
Vermilion County | | Change Station
Active Advisory: Dense Fog Advisory

Elev 696 ft 40.20 °N, 87.60 °W | Updated 13 minutes ago

Fog
Fog
50 °F
Feels Like 50 °F
N
6
Wind Variable Wind from SSW

Today
High -- | Low -- °F
--% Chance of Precip.
Yesterday
High -- | Low -- °F
Precip. -- in
Pressure 29.85 in
Visibility 0.2 miles
Clouds Overcast 100 ft
Dew Point 49 °F
Humidity 99%
Rainfall 0.00 in
Snow Depth Not available.
6:33 AM 5:34 PM
Waning Crescent, 17% visible
METAR KDNV 221335Z AUTO 20005KT M1/4SM -RA OVC001 10/10 A2985 RMK AO2 T00970096
Pressure 29.85 in
Visibility 0.2 miles
Clouds Overcast 100 ft
Dew Point 49 °F
Humidity 99%
Rainfall 0.00 in
Snow Depth Not available.
6:33 AM 5:34 PM
Waning Crescent, 17% visible
METAR KDNV 221335Z AUTO 20005KT M1/4SM -RA OVC001 10/10 A2985 RMK AO2 T00970096

Get Your Daily Forecast Email!

Thanks for signing up!

Be on the lookout for a verification email in your inbox.

You'll start receiving the daily forecast at 8 AM.

×

10-Day Weather Forecast

Almanac

Astronomy

Feb. 22, 2017 Rise Set
Actual Time
Civil Twilight
Nautical Twilight
Astronomical Twilight
Moon
Length of Visible Light
Length of Day
Tomorrow will be .
, % of the Moon is Illuminated

Today's Extremes

State Highs State Lows

Community

WunderPhotos

Upload Photos

1,962,540 photos uploaded!

WunderBlog® & News

Nearby

Air Quality

  Air Quality AQ Index Pollutant
Not available.

Snow Depth

Station Depth Elevation

Earthquake Activity

City Distance Mag. Time & Date
Minimum magnitude displayed is 2.5.

Coastal Water Temperatures

Place Temperature

Stations

Nearby Weather Stations

Station Location Temp. Windchill Dew Point Humidity Wind Precip. Elev Updated Type
                   

Watches & Warnings

Dense Fog Advisory
Issued: 3:28 AM CST Feb. 22, 2017 – National Weather Service

... Dense fog advisory in effect until 9 am CST this morning...

The National Weather Service in Lincoln has issued a dense fog
advisory... which is in effect until 9 am CST this morning.

* Visibility... one quarter mile or less at times.

* Impacts... areas of low visibility and rapid changes in
visibility will cause hazardous driving conditions.

Precautionary/preparedness actions...

A dense fog advisory means visibilities will frequently be
reduced to less than one quarter mile. If driving... slow down...
use your headlights... and leave plenty of distance ahead of you.